Home   Weather   Germany   Laatzen   Past weeks
Flag for Germany

Past Weather in Laatzen, Lower Saxony, Germany — Yesterday and Last 2 Weeks

Currently: 39 °F. Passing clouds. (Weather station: Hannover, Germany). See more current weather

Past Weather in Laatzen — Graph

°F

Laatzen Temperature Yesterday

Maximum temperature yesterday: 63 °F (at 11:50 am)
Minimum temperature yesterday: 48 °F (at 9:50 pm)
Average temperature yesterday: 55 °F

High & Low Weather Summary for the Past Weeks

 TemperatureHumidityPressure
High66 °F (Feb 22, 1:50 pm)100% (Feb 11, 8:50 pm)30.77 "Hg (Feb 11, 8:50 pm)
Low0 °F (Feb 13, 7:20 am)32% (Feb 22, 2:50 pm)29.74 "Hg (Feb 18, 7:50 pm)
Average41 °F73%30.26 "Hg
* Reported Feb 11 6:20 pm — Feb 26 6:50 pm, Laatzen. Weather by CustomWeather, © 2021

Note: Actual official high and low records may vary slightly from our data, if they occured in-between our weather recording intervals... More about our weather records

Laatzen Weather History for the Previous 24 Hours

Scroll right to see more
 ConditionsComfort  
Time TempWeatherWind HumidityBarometerVisibility
6:50 pm
Fri, Feb 26
41 °FPassing clouds.6 mph76%30.51 "HgN/A
6:20 pm43 °FPassing clouds.5 mph71%30.51 "HgN/A
5:50 pm43 °FSunny.7 mph76%30.48 "Hg10 mi
5:20 pm45 °FSunny.8 mph71%30.48 "Hg10 mi
4:50 pm48 °FSunny.10 mph62%30.48 "Hg10 mi
4:20 pm48 °FSunny.12 mph62%30.48 "Hg10 mi
3:50 pm50 °FSunny.8 mph54%30.45 "Hg10 mi
3:20 pm50 °FPassing clouds.10 mph54%30.45 "HgN/A
2:50 pm52 °FPassing clouds.12 mph54%30.45 "HgN/A
2:20 pm48 °FPassing clouds.13 mph62%30.45 "HgN/A
1:50 pm50 °FPassing clouds.15 mph58%30.45 "HgN/A
1:20 pm48 °FScattered clouds.13 mph62%30.48 "HgN/A
12:50 pm48 °FScattered clouds.9 mph71%30.48 "HgN/A
12:20 pm48 °FPassing clouds.10 mph71%30.48 "HgN/A
11:50 am46 °FPassing clouds.12 mph82%30.48 "HgN/A
11:20 am46 °FPassing clouds.9 mph82%30.48 "HgN/A
10:50 am46 °FPassing clouds.7 mph82%30.45 "HgN/A
10:20 am45 °FSunny.7 mph87%30.45 "Hg10 mi
9:50 am45 °FSunny.7 mph87%30.45 "Hg10 mi
9:20 am45 °FScattered clouds.8 mph87%30.45 "HgN/A
8:50 am45 °FPartly sunny.6 mph87%30.45 "HgN/A
8:20 am43 °FPassing clouds.7 mph93%30.45 "HgN/A
7:50 am43 °FSunny.7 mph93%30.42 "Hg10 mi
7:20 am43 °FSunny.8 mph93%30.42 "Hg10 mi
6:50 am43 °FClear.7 mph100%30.39 "Hg10 mi
6:20 am43 °FPassing clouds.5 mph100%30.39 "HgN/A
5:50 am43 °FPassing clouds.5 mph100%30.39 "HgN/A
5:20 am45 °FPassing clouds.5 mph93%30.39 "HgN/A
4:50 am45 °FPassing clouds.6 mph93%30.39 "Hg4 mi
4:20 am45 °FPassing clouds.5 mph93%30.39 "HgN/A
3:50 am45 °FLight rain. Passing clouds.5 mph100%30.39 "HgN/A
3:20 am45 °FLight rain. Overcast.2 mph93%30.39 "HgN/A
2:50 am45 °FLight rain. Overcast.6 mph100%30.39 "Hg6 mi
2:20 am45 °FLight rain. Mostly cloudy.6 mph100%30.39 "HgN/A
1:50 am45 °FLight rain. Mostly cloudy.6 mph100%30.39 "HgN/A
1:20 am46 °FRain. Mostly cloudy.6 mph93%30.39 "Hg4 mi
12:50 am46 °FRain. Mostly cloudy.8 mph93%30.39 "Hg4 mi
12:20 am48 °FLight rain. Mostly cloudy.7 mph94%30.39 "Hg4 mi
11:50 pm
Thu, Feb 25
48 °FLight rain. Mostly cloudy.8 mph94%30.36 "Hg6 mi
11:20 pm48 °FRain. Overcast.9 mph94%30.36 "Hg4 mi
10:50 pm50 °FLight rain. Mostly cloudy.9 mph88%30.33 "HgN/A
10:20 pm50 °FClear.10 mph82%30.33 "Hg10 mi
9:50 pm48 °FClear.2 mph82%30.30 "Hg10 mi
9:20 pm50 °FClear.1 mph76%30.30 "Hg10 mi
8:50 pm50 °FClear.1 mph76%30.30 "Hg10 mi
8:20 pm50 °FClear.1 mph76%30.30 "Hg10 mi
7:50 pm52 °FClear.1 mph72%30.30 "Hg10 mi
7:20 pm54 °FClear.1 mph67%30.30 "Hg10 mi
Weather by CustomWeather, © 2021

See weather overview